Time;durP1;ratioP1;P1;durP2;ratioP2;P2;SDS_P1;SDS_P2;PMS_P1;PMS_P2;Temp;Humidity;BMP_temperature;BMP_pressure;BME280_temperature;BME280_humidity;BME280_pressure;Samples;Min_cycle;Max_cycle;Signal;HPM_P1;HPM_P2
2021/12/23 00:00:31;;;;;;;36.90;15.02;;;;;;;-6.56;89.08;99794.97;4500356;31;20106;-75
2021/12/23 00:02:59;;;;;;;40.08;14.77;;;;;;;-6.50;88.99;99800.88;4494442;31;20124;-76
2021/12/23 00:05:26;;;;;;;32.10;13.38;;;;;;;-6.43;88.91;99796.63;4484356;31;20142;-75
2021/12/23 00:07:53;;;;;;;33.25;14.15;;;;;;;-6.41;88.55;99797.47;4484484;31;20119;-76
2021/12/23 00:10:21;;;;;;;41.03;15.02;;;;;;;-6.34;88.33;99794.06;4484773;31;20089;-75
2021/12/23 00:12:48;;;;;;;35.05;13.25;;;;;;;-6.45;88.51;99791.53;4484288;31;20119;-76
2021/12/23 00:15:30;;;;;;;35.00;14.68;;;;;;;-6.40;88.61;99780.47;4484336;31;20208;-75
2021/12/23 00:25:49;;;;;;;40.47;13.62;;;;;;;-6.36;88.59;99780.44;4484195;32;20085;-75
2021/12/23 00:28:17;;;;;;;35.85;15.15;;;;;;;-6.50;89.00;99769.47;4485607;31;20097;-75
2021/12/23 00:30:44;;;;;;;37.78;13.80;;;;;;;-6.52;89.39;99776.28;4499809;31;20088;-75
2021/12/23 00:33:11;;;;;;;35.50;13.52;;;;;;;-6.45;89.21;99773.69;4499946;31;20108;-75
2021/12/23 00:35:39;;;;;;;32.38;12.48;;;;;;;-6.48;89.17;99772.84;4499673;31;20122;-76
2021/12/23 00:38:16;;;;;;;50.65;15.52;;;;;;;-6.44;89.17;99772.81;4499628;31;20088;-75
2021/12/23 00:40:44;;;;;;;30.88;12.85;;;;;;;-6.45;89.03;99765.19;4499985;31;20438;-76
2021/12/23 00:43:12;;;;;;;43.63;14.15;;;;;;;-6.52;89.55;99773.72;4499579;31;20461;-76
2021/12/23 00:45:39;;;;;;;36.58;14.68;;;;;;;-6.58;90.18;99763.56;4499526;31;20096;-75
2021/12/23 00:48:07;;;;;;;34.47;13.38;;;;;;;-6.61;90.23;99756.75;4499672;31;20119;-76
2021/12/23 00:50:34;;;;;;;33.03;15.45;;;;;;;-6.66;90.29;99761.00;4499707;31;20092;-75
2021/12/23 00:53:05;;;;;;;35.28;13.93;;;;;;;-6.68;90.69;99760.19;4501618;31;20083;-75
2021/12/23 00:55:33;;;;;;;32.60;13.20;;;;;;;-6.62;90.51;99763.53;4501678;31;20100;-75
2021/12/23 00:58:00;;;;;;;34.17;14.05;;;;;;;-6.64;90.61;99757.63;4501713;31;20442;-76
2021/12/23 01:00:28;;;;;;;41.25;14.73;;;;;;;-6.59;90.67;99762.69;4501733;31;20096;-76
2021/12/23 01:02:58;;;;;;;30.15;13.18;;;;;;;-6.53;90.22;99756.72;4496237;31;20132;-76
2021/12/23 01:05:26;;;;;;;34.88;13.50;;;;;;;-6.60;90.46;99748.25;4486011;31;20096;-75
2021/12/23 01:07:54;;;;;;;36.75;13.50;;;;;;;-6.55;90.39;99751.66;4485728;32;20097;-76
2021/12/23 01:10:24;;;;;;;32.92;13.48;;;;;;;-6.49;90.34;99745.69;4484684;32;20485;-76
2021/12/23 01:12:58;;;;;;;42.80;13.45;;;;;;;-6.57;90.38;99744.84;4485558;31;20114;-75
2021/12/23 01:18:05;;;;;;;33.83;14.80;;;;;;;-6.68;91.24;99742.34;4485904;31;20088;-76
2021/12/23 01:20:38;;;;;;;47.70;13.93;;;;;;;-6.70;91.29;99742.34;4485982;31;20265;-75
2021/12/23 01:23:06;;;;;;;29.58;14.07;;;;;;;-6.78;91.84;99739.00;4485937;31;20485;-76
2021/12/23 01:25:35;;;;;;;31.67;12.93;;;;;;;-6.74;92.33;99732.19;4485824;31;20172;-75
2021/12/23 01:28:03;;;;;;;31.10;13.95;;;;;;;-6.55;91.83;99736.34;4485766;31;20100;-75
2021/12/23 01:30:30;;;;;;;37.22;13.32;;;;;;;-6.54;91.24;99734.63;4485776;31;20433;-75
2021/12/23 01:32:59;;;;;;;38.03;14.55;;;;;;;-6.42;90.45;99735.44;4485715;31;20116;-75
2021/12/23 01:35:27;;;;;;;29.35;13.10;;;;;;;-6.47;90.91;99733.75;4485776;31;20108;-75
2021/12/23 01:37:54;;;;;;;34.53;13.68;;;;;;;-6.39;90.94;99734.56;4485508;31;20438;-75
2021/12/23 01:40:24;;;;;;;32.88;11.98;;;;;;;-6.37;90.63;99732.88;4485907;31;20133;-75
2021/12/23 01:42:52;;;;;;;33.75;12.88;;;;;;;-6.32;90.49;99731.12;4485472;32;20093;-76
2021/12/23 01:45:26;;;;;;;26.75;12.98;;;;;;;-6.25;90.38;99731.97;4485869;31;20143;-76
2021/12/23 01:47:53;;;;;;;28.73;11.90;;;;;;;-6.26;90.40;99723.44;4485661;32;20423;-75
2021/12/23 01:50:25;;;;;;;27.67;12.00;;;;;;;-6.18;90.35;99714.91;4486099;31;20092;-75
2021/12/23 01:52:59;;;;;;;35.88;13.27;;;;;;;-6.16;90.26;99723.41;4485775;31;20092;-76
2021/12/23 01:55:27;;;;;;;28.33;12.15;;;;;;;-6.29;90.84;99712.44;4486020;31;107125;-75
2021/12/23 01:57:57;;;;;;;30.98;13.05;;;;;;;-6.32;91.12;99713.28;4493277;31;20149;-76
2021/12/23 02:00:27;;;;;;;27.98;13.00;;;;;;;-6.22;91.23;99708.12;4485399;31;20118;-76
2021/12/23 02:02:55;;;;;;;32.70;12.68;;;;;;;-6.22;91.12;99710.69;4489944;31;20156;-76
2021/12/23 02:05:23;;;;;;;28.73;12.02;;;;;;;-6.10;91.03;99701.28;4501292;31;20181;-75
2021/12/23 02:07:51;;;;;;;33.10;14.05;;;;;;;-6.18;90.99;99700.44;4501210;31;20164;-75
2021/12/23 02:10:19;;;;;;;30.62;12.27;;;;;;;-6.13;91.05;99692.78;4501374;31;20118;-75
2021/12/23 02:12:48;;;;;;;25.88;11.07;;;;;;;-6.04;90.80;99699.53;4501238;31;20469;-76
2021/12/23 02:15:16;;;;;;;29.08;12.10;;;;;;;-6.11;91.77;99701.28;4501322;31;20152;-75
2021/12/23 02:17:45;;;;;;;26.95;11.60;;;;;;;-6.12;91.64;99692.75;4501214;31;20735;-75
2021/12/23 02:20:21;;;;;;;28.00;12.70;;;;;;;-6.04;91.67;99697.84;4501233;31;20088;-75
2021/12/23 02:22:49;;;;;;;36.60;12.55;;;;;;;-6.02;91.60;99695.28;4501165;31;20072;-75
2021/12/23 02:25:17;;;;;;;27.48;13.15;;;;;;;-5.95;91.49;99691.78;4500999;31;20179;-75
2021/12/23 02:27:46;;;;;;;31.65;11.48;;;;;;;-6.02;91.71;99685.91;4501141;31;20426;-76
2021/12/23 02:30:19;;;;;;;29.80;11.60;;;;;;;-6.01;91.55;99679.09;4486986;31;20100;-75
2021/12/23 02:32:47;;;;;;;;;;;;;;;-5.94;91.34;99676.44;4485762;32;20103;-75
2021/12/23 02:35:17;;;;;;;27.02;12.68;;;;;;;-5.96;91.27;99680.72;4485428;32;20333;-76
2021/12/23 02:37:45;;;;;;;26.23;10.48;;;;;;;-5.91;90.98;99666.22;4485208;31;20097;-75
2021/12/23 02:40:24;;;;;;;32.38;12.88;;;;;;;-6.03;91.26;99668.91;4485467;32;20096;-75
2021/12/23 02:42:51;;;;;;;33.95;13.23;;;;;;;-6.01;91.48;99669.75;4485095;32;20076;-75
2021/12/23 02:45:19;;;;;;;36.83;11.10;;;;;;;-5.99;91.41;99665.47;4485243;31;20541;-75
2021/12/23 02:47:47;;;;;;;28.98;11.90;;;;;;;-6.00;91.58;99662.94;4485217;31;20118;-75
2021/12/23 02:50:14;;;;;;;33.90;12.40;;;;;;;-6.02;91.33;99657.03;4485259;31;20089;-75
2021/12/23 02:52:41;;;;;;;42.38;12.88;;;;;;;-6.10;91.96;99651.94;4485326;31;20118;-75
2021/12/23 02:55:08;;;;;;;32.13;12.15;;;;;;;-6.11;92.09;99650.28;4484807;31;20092;-75
2021/12/23 02:57:35;;;;;;;31.12;12.13;;;;;;;-6.10;92.03;99657.91;4485687;32;20088;-75
2021/12/23 03:00:05;;;;;;;35.30;12.68;;;;;;;-6.11;92.15;99647.72;4485187;32;20118;-75
2021/12/23 03:02:32;;;;;;;32.45;11.70;;;;;;;-6.07;92.21;99647.69;4487837;31;20095;-75
2021/12/23 03:04:59;;;;;;;27.40;11.93;;;;;;;-6.15;92.46;99646.03;4500768;31;20108;-75
2021/12/23 03:07:27;;;;;;;30.33;11.85;;;;;;;-6.19;92.79;99644.38;4501093;31;20531;-76
2021/12/23 03:09:54;;;;;;;26.55;12.30;;;;;;;-6.17;92.76;99646.06;4500810;31;20524;-75
2021/12/23 03:12:21;;;;;;;29.65;11.30;;;;;;;-6.10;92.61;99637.50;4500851;31;20091;-76
2021/12/23 03:14:48;;;;;;;26.02;11.48;;;;;;;-6.16;92.38;99645.22;4499498;31;20119;-75
2021/12/23 03:17:16;;;;;;;30.67;11.60;;;;;;;-6.12;92.90;99643.47;4499642;31;20137;-75
2021/12/23 03:19:43;;;;;;;28.80;12.07;;;;;;;-6.12;92.76;99638.38;4500665;31;20088;-75
2021/12/23 03:22:10;;;;;;;28.30;12.00;;;;;;;-6.17;93.05;99640.13;4500852;31;20125;-75
2021/12/23 03:24:37;;;;;;;32.28;12.18;;;;;;;-6.23;93.32;99637.63;4500609;31;20115;-75
2021/12/23 03:27:04;;;;;;;40.75;13.90;;;;;;;-6.16;93.43;99640.09;4499704;31;20111;-75
2021/12/23 03:29:32;;;;;;;28.48;11.88;;;;;;;-6.17;93.26;99635.84;4490768;31;20238;-75
2021/12/23 03:31:59;;;;;;;29.92;11.40;;;;;;;-6.18;93.36;99635.87;4484882;31;20123;-75
2021/12/23 03:34:26;;;;;;;34.83;13.00;;;;;;;-6.10;93.25;99621.34;4484736;32;20115;-75
2021/12/23 03:36:53;;;;;;;29.80;11.85;;;;;;;-6.14;93.36;99624.78;4484814;32;20123;-75
2021/12/23 03:39:20;;;;;;;29.63;11.75;;;;;;;-6.21;93.59;99620.59;4484634;32;20114;-76
2021/12/23 03:41:48;;;;;;;30.62;10.95;;;;;;;-6.20;93.66;99629.94;4484768;31;20110;-75
2021/12/23 03:44:16;;;;;;;26.55;11.15;;;;;;;-6.15;93.58;99625.63;4484975;32;20147;-75
2021/12/23 03:46:43;;;;;;;32.63;12.07;;;;;;;-6.17;94.19;99619.72;4484748;31;20126;-75
2021/12/23 03:49:10;;;;;;;30.58;12.05;;;;;;;-6.21;94.17;99618.03;4484843;31;20168;-75
2021/12/23 03:51:38;;;;;;;29.52;11.50;;;;;;;-6.21;94.56;99618.88;4484692;31;20123;-75
2021/12/23 03:54:06;;;;;;;29.35;13.18;;;;;;;-6.18;94.46;99623.94;4484601;31;20203;-75
2021/12/23 03:56:33;;;;;;;30.42;12.37;;;;;;;-6.24;94.93;99621.44;4484476;31;20175;-75
2021/12/23 03:59:00;;;;;;;31.15;12.55;;;;;;;-6.11;94.23;99620.50;4484612;31;20127;-75
2021/12/23 04:01:29;;;;;;;30.12;11.65;;;;;;;-6.05;93.94;99614.50;4484357;31;20084;-75
2021/12/23 04:03:57;;;;;;;28.90;12.32;;;;;;;-5.89;93.41;99610.94;4496206;31;20132;-76
2021/12/23 04:06:26;;;;;;;26.40;12.25;;;;;;;-5.91;92.64;99614.34;4500155;31;20100;-76
2021/12/23 04:08:54;;;;;;;30.15;13.18;;;;;;;-5.95;92.77;99611.00;4500232;31;20088;-76
2021/12/23 04:11:22;;;;;;;31.20;12.23;;;;;;;-5.89;92.44;99612.63;4500149;31;20114;-75
2021/12/23 04:13:52;;;;;;;31.45;12.65;;;;;;;-5.91;91.79;99602.44;4500400;31;20096;-76
2021/12/23 04:16:20;;;;;;;34.67;12.18;;;;;;;-6.04;91.87;99602.59;4500109;31;20509;-75
2021/12/23 04:18:50;;;;;;;34.67;13.57;;;;;;;-5.95;91.83;99600.78;4499983;31;20088;-75
2021/12/23 04:21:18;;;;;;;30.62;11.88;;;;;;;-6.14;92.26;99600.13;4499855;31;20107;-75
2021/12/23 04:23:46;;;;;;;29.80;12.90;;;;;;;-6.14;92.43;99600.13;4499982;31;20119;-75
2021/12/23 04:26:13;;;;;;;29.67;10.80;;;;;;;-6.08;92.17;99602.63;4501326;31;20123;-75
2021/12/23 04:28:47;;;;;;;30.00;11.32;;;;;;;-6.33;92.85;99596.84;4498159;31;20092;-76
2021/12/23 04:31:15;;;;;;;;;;;;;;;-6.27;92.84;99601.94;4486390;31;20712;-75
2021/12/23 04:33:48;;;;;;;28.30;11.32;;;;;;;-6.38;93.22;99585.84;4486241;32;20382;-75
2021/12/23 04:36:16;;;;;;;34.88;12.50;;;;;;;-6.29;93.16;99590.06;4486073;31;20100;-75
2021/12/23 04:38:44;;;;;;;24.77;11.00;;;;;;;-6.29;93.05;99583.22;4486325;31;20114;-75
2021/12/23 04:41:12;;;;;;;32.45;11.88;;;;;;;-6.23;93.03;99581.50;4485991;31;20545;-75
2021/12/23 04:43:41;;;;;;;33.53;11.77;;;;;;;-6.19;92.51;99580.59;4486201;32;20934;-75
2021/12/23 04:46:08;;;;;;;29.42;12.45;;;;;;;-6.15;92.10;99585.66;4486218;31;20119;-75
2021/12/23 04:48:35;;;;;;;38.45;12.05;;;;;;;-6.39;92.98;99579.06;4486173;31;20093;-75
2021/12/23 04:51:03;;;;;;;31.50;13.50;;;;;;;-6.26;92.64;99580.66;4484875;32;20123;-75
2021/12/23 04:53:31;;;;;;;29.77;11.98;;;;;;;-6.34;92.83;99581.56;4486283;31;20100;-75
2021/12/23 04:55:58;;;;;;;33.35;12.65;;;;;;;-6.34;92.91;99587.53;4486182;31;20134;-75
2021/12/23 04:58:25;;;;;;;37.10;13.27;;;;;;;-6.29;92.57;99584.94;4486517;31;20115;-76
2021/12/23 05:00:53;;;;;;;33.35;12.75;;;;;;;-6.27;92.31;99588.31;4485773;31;20135;-75
2021/12/23 05:03:22;;;;;;;29.67;12.25;;;;;;;-6.27;92.06;99583.22;4492511;31;20172;-75
2021/12/23 05:05:50;;;;;;;23.75;11.12;;;;;;;-6.25;92.13;99590.00;4501706;31;20088;-75
2021/12/23 05:08:18;;;;;;;27.27;12.05;;;;;;;-6.16;91.87;99584.00;4501872;31;20108;-75
2021/12/23 05:10:45;;;;;;;27.42;11.20;;;;;;;-6.12;91.45;99574.59;4501661;31;20100;-75
2021/12/23 05:13:13;;;;;;;30.60;11.57;;;;;;;-6.20;91.96;99569.56;4501814;31;20091;-75
2021/12/23 05:15:40;;;;;;;22.65;10.93;;;;;;;-6.11;91.78;99578.84;4501808;31;20450;-75
2021/12/23 05:18:08;;;;;;;30.92;13.15;;;;;;;-6.19;92.00;99575.50;4501725;31;20095;-75
2021/12/23 05:20:36;;;;;;;33.22;11.20;;;;;;;-6.15;92.13;99574.63;4501481;31;20092;-76
2021/12/23 05:23:03;;;;;;;28.33;12.45;;;;;;;-6.23;92.31;99568.75;4501637;31;20163;-75
2021/12/23 05:25:30;;;;;;;24.37;10.75;;;;;;;-6.27;92.40;99563.69;4501520;31;20114;-75
2021/12/23 05:28:00;;;;;;;33.22;12.90;;;;;;;-6.35;92.79;99559.50;4501607;31;20084;-75
2021/12/23 05:30:27;;;;;;;31.25;10.65;;;;;;;-6.51;93.41;99568.94;4485499;31;20165;-75
2021/12/23 05:32:54;;;;;;;32.38;12.37;;;;;;;-6.51;93.82;99563.84;4485149;31;20119;-75
2021/12/23 05:35:23;;;;;;;21.00;9.70;;;;;;;-6.44;93.59;99570.59;4485777;32;20110;-76
2021/12/23 05:37:51;;;;;;;25.45;11.57;;;;;;;-6.39;93.28;99573.97;4484429;31;20096;-76
2021/12/23 05:40:21;;;;;;;27.77;12.52;;;;;;;-6.17;93.02;99578.91;4484157;31;20479;-75
2021/12/23 05:42:49;;;;;;;25.75;11.05;;;;;;;-6.15;92.35;99587.38;4484645;32;20150;-76
2021/12/23 05:45:17;;;;;;;27.40;13.38;;;;;;;-5.97;91.81;99587.22;4485811;31;20085;-76
2021/12/23 05:47:44;;;;;;;32.33;12.90;;;;;;;-5.89;91.77;99580.34;4485607;31;20149;-76
2021/12/23 05:50:13;;;;;;;24.77;10.98;;;;;;;-6.00;92.09;99577.03;4485759;31;20089;-75
2021/12/23 05:52:40;;;;;;;34.47;12.98;;;;;;;-5.81;91.18;99577.72;4485479;31;20112;-76
2021/12/23 05:55:09;;;;;;;26.30;10.18;;;;;;;-5.79;91.48;99575.13;4485637;31;20802;-76
2021/12/23 05:57:37;;;;;;;32.63;13.02;;;;;;;-5.83;91.20;99573.47;4485728;31;20084;-75
2021/12/23 06:00:13;;;;;;;31.60;11.73;;;;;;;-5.84;91.50;99572.63;4485710;31;20110;-76
2021/12/23 06:02:40;;;;;;;41.33;13.75;;;;;;;-5.65;91.49;99567.34;4488915;31;20143;-75
2021/12/23 06:05:08;;;;;;;36.42;14.50;;;;;;;-5.75;91.41;99564.03;4501528;31;20111;-75
2021/12/23 06:07:35;;;;;;;26.42;12.18;;;;;;;-5.80;91.71;99560.69;4501343;31;20126;-75
2021/12/23 06:10:04;;;;;;;26.90;10.88;;;;;;;-5.71;91.17;99553.78;4501477;31;20096;-76
2021/12/23 06:12:31;;;;;;;28.65;12.07;;;;;;;-5.55;90.56;99554.47;4501070;31;20157;-76
2021/12/23 06:14:58;;;;;;;31.87;12.70;;;;;;;-5.43;89.72;99550.09;4501268;31;20104;-76
2021/12/23 06:17:26;;;;;;;25.15;10.27;;;;;;;-5.42;89.60;99549.19;4501126;31;20165;-75
2021/12/23 06:19:53;;;;;;;34.30;13.48;;;;;;;-5.37;89.83;99558.50;4501324;31;20115;-75
2021/12/23 06:22:20;;;;;;;26.27;11.25;;;;;;;-5.42;89.32;99559.41;4500808;31;20122;-75
2021/12/23 06:24:48;;;;;;;37.47;13.90;;;;;;;-5.34;89.39;99557.63;4501397;31;20172;-75
2021/12/23 06:27:17;;;;;;;25.23;10.48;;;;;;;-5.25;89.17;99552.41;4500972;31;20130;-75
2021/12/23 06:29:44;;;;;;;27.48;10.90;;;;;;;-5.32;88.93;99555.06;4490076;31;20112;-75
2021/12/23 06:32:11;;;;;;;29.02;11.20;;;;;;;-5.33;89.15;99546.53;4484976;31;20617;-75
2021/12/23 06:34:39;;;;;;;32.83;12.68;;;;;;;-5.27;88.56;99546.50;4485363;31;20092;-75
2021/12/23 06:37:06;;;;;;;33.33;12.65;;;;;;;-5.14;88.11;99551.44;4485119;31;20110;-75
2021/12/23 06:39:34;;;;;;;26.50;10.90;;;;;;;-5.15;87.98;99544.63;4485444;31;20116;-75
2021/12/23 06:42:03;;;;;;;28.38;12.60;;;;;;;-5.09;87.91;99557.31;4485047;32;20116;-75
2021/12/23 06:44:30;;;;;;;23.87;10.15;;;;;;;-5.08;87.41;99561.59;4485203;31;20103;-75
2021/12/23 06:46:58;;;;;;;26.83;11.10;;;;;;;-5.11;86.82;99554.78;4485071;32;20097;-75
2021/12/23 06:49:26;;;;;;;29.75;10.95;;;;;;;-5.21;88.22;99554.06;4485146;31;20108;-75
2021/12/23 06:51:53;;;;;;;34.90;11.35;;;;;;;-5.09;87.22;99549.66;4485128;32;20118;-75
2021/12/23 06:54:21;;;;;;;23.27;11.68;;;;;;;-5.04;86.96;99542.78;4485131;31;20096;-75
2021/12/23 06:56:48;;;;;;;37.78;12.60;;;;;;;-5.03;86.93;99552.13;4485018;31;20118;-75
2021/12/23 06:59:16;;;;;;;22.30;9.75;;;;;;;-5.09;86.94;99547.09;4485274;31;20084;-75
2021/12/23 07:01:47;;;;;;;28.90;11.73;;;;;;;-5.02;86.31;99553.84;4484819;31;20096;-75
2021/12/23 07:04:18;;;;;;;28.58;11.40;;;;;;;-4.94;86.45;99559.69;4498938;31;20087;-75
2021/12/23 07:06:48;;;;;;;37.00;12.32;;;;;;;-5.01;86.40;99556.38;4500817;31;20472;-75
2021/12/23 07:09:15;;;;;;;26.30;11.88;;;;;;;-4.89;86.10;99550.25;4501027;31;20089;-75
2021/12/23 07:11:42;;;;;;;26.55;12.40;;;;;;;-5.00;85.49;99541.88;4500934;31;20122;-75
2021/12/23 07:14:10;;;;;;;32.65;11.45;;;;;;;-4.90;85.84;99553.66;4500807;31;20590;-75
2021/12/23 07:16:38;;;;;;;30.02;12.13;;;;;;;-4.73;85.94;99555.97;4500988;31;20092;-75
2021/12/23 07:19:05;;;;;;;34.38;12.55;;;;;;;-4.64;84.88;99549.91;4486462;31;20530;-75
2021/12/23 07:21:33;;;;;;;27.13;11.00;;;;;;;-4.59;84.01;99550.66;4484942;31;20123;-75
2021/12/23 07:24:01;;;;;;;32.13;11.43;;;;;;;-4.60;84.25;99538.75;4484859;31;20180;-75
2021/12/23 07:26:28;;;;;;;28.33;10.95;;;;;;;-4.46;83.68;99539.38;4484808;31;20088;-75
2021/12/23 07:28:55;;;;;;;26.23;11.07;;;;;;;-4.46;83.65;99541.94;4490577;31;20096;-75
2021/12/23 07:31:22;;;;;;;33.90;10.48;;;;;;;-4.42;83.58;99534.22;4500511;31;20104;-75
2021/12/23 07:33:49;;;;;;;23.25;9.88;;;;;;;-4.29;82.83;99540.84;4500327;31;20491;-75
2021/12/23 07:36:18;;;;;;;22.45;9.60;;;;;;;-4.29;82.39;99540.84;4500633;31;20453;-74
2021/12/23 07:38:45;;;;;;;24.27;10.27;;;;;;;-4.24;81.75;99544.16;4500371;31;20432;-75
2021/12/23 07:41:13;;;;;;;24.73;10.65;;;;;;;-4.27;80.71;99546.75;4499478;31;20250;-74
2021/12/23 07:46:08;;;;;;;25.58;10.02;;;;;;;-4.29;81.09;99541.66;4500457;31;20140;-74
2021/12/23 07:48:35;;;;;;;25.42;10.52;;;;;;;-4.31;80.51;99540.84;4500400;31;20130;-75
2021/12/23 07:51:03;;;;;;;22.62;10.40;;;;;;;-4.47;80.71;99532.59;4500911;31;20377;-75
2021/12/23 07:53:30;;;;;;;32.35;10.88;;;;;;;-4.47;81.03;99524.94;4499766;31;20100;-74
2021/12/23 07:56:03;;;;;;;32.92;10.40;;;;;;;-4.31;80.39;99524.69;4499314;31;20506;-74
2021/12/23 07:58:31;;;;;;;20.92;8.70;;;;;;;-4.21;80.16;99528.78;4499261;31;20134;-74
2021/12/23 08:00:58;;;;;;;37.83;9.00;;;;;;;-4.14;80.49;99527.78;4498659;31;20126;-75
2021/12/23 08:03:25;;;;;;;30.80;12.73;;;;;;;-4.15;79.99;99521.00;4490495;31;20836;-74
2021/12/23 08:05:52;;;;;;;29.87;12.15;;;;;;;-4.07;80.43;99510.63;4483604;32;20111;-75
2021/12/23 08:08:20;;;;;;;27.48;11.38;;;;;;;-3.95;81.12;99514.69;4484266;31;20084;-75
2021/12/23 08:10:49;;;;;;;28.75;11.85;;;;;;;-3.86;80.47;99509.41;4484565;31;20137;-75
2021/12/23 08:13:18;;;;;;;36.10;11.63;;;;;;;-3.85;79.46;99505.09;4484319;31;20080;-75
2021/12/23 08:15:45;;;;;;;26.25;10.85;;;;;;;-3.94;79.55;99508.66;4492175;31;20091;-75
2021/12/23 08:18:13;;;;;;;24.77;10.23;;;;;;;-3.88;80.25;99503.44;4498805;31;20096;-75
2021/12/23 08:20:40;;;;;;;38.35;11.70;;;;;;;-3.81;79.03;99505.03;4498264;31;20096;-75
2021/12/23 08:23:07;;;;;;;22.75;9.18;;;;;;;-3.62;78.35;99507.22;4499472;31;20096;-75
2021/12/23 08:25:35;;;;;;;22.45;8.88;;;;;;;-3.96;77.41;99502.75;4497879;31;20100;-75
2021/12/23 08:28:02;;;;;;;25.00;10.05;;;;;;;-3.82;78.76;99500.75;4498549;31;20516;-75
2021/12/23 08:30:34;;;;;;;29.40;9.35;;;;;;;-3.85;78.24;99495.69;4483283;32;20600;-75
2021/12/23 08:33:02;;;;;;;24.02;9.40;;;;;;;-3.82;77.33;99490.53;4484278;32;20108;-75
2021/12/23 08:35:30;;;;;;;23.23;9.45;;;;;;;-3.70;77.68;99492.00;4483734;31;20552;-75
2021/12/23 08:37:57;;;;;;;24.40;9.95;;;;;;;-3.62;77.25;99489.28;4483917;31;20145;-75
2021/12/23 08:40:26;;;;;;;21.27;10.18;;;;;;;-3.65;76.81;99489.34;4484323;31;20100;-75
2021/12/23 08:42:56;;;;;;;23.48;10.55;;;;;;;-3.42;76.77;99499.16;4484045;32;20112;-75
2021/12/23 08:45:25;;;;;;;20.65;9.38;;;;;;;-3.28;75.78;99498.87;4483545;31;20088;-75
2021/12/23 08:47:54;;;;;;;21.85;9.43;;;;;;;-3.28;75.68;99502.25;4483107;31;20115;-75
2021/12/23 08:50:23;;;;;;;22.73;9.80;;;;;;;-3.04;73.75;99500.91;4483394;31;20567;-75
2021/12/23 08:52:51;;;;;;;22.83;8.82;;;;;;;-3.12;74.76;99497.69;4484189;31;20146;-75
2021/12/23 08:55:19;;;;;;;22.30;8.93;;;;;;;-2.91;73.92;99488.63;4483439;31;20108;-74
2021/12/23 08:57:47;;;;;;;27.55;8.70;;;;;;;-3.04;72.92;99482.97;4483763;31;20420;-74
2021/12/23 09:00:16;;;;;;;17.23;6.68;;;;;;;-3.20;72.71;99491.84;4483010;31;20112;-74
2021/12/23 09:02:46;;;;;;;21.62;8.77;;;;;;;-3.08;73.36;99499.28;4486717;31;20096;-74
2021/12/23 09:05:13;;;;;;;16.37;7.60;;;;;;;-2.81;73.08;99486.72;4496877;31;20094;-74
2021/12/23 09:07:41;;;;;;;18.75;8.35;;;;;;;-2.88;72.65;99465.53;4499229;31;20096;-75
2021/12/23 09:10:09;;;;;;;15.63;7.43;;;;;;;-2.93;72.03;99462.19;4499246;31;20558;-74
2021/12/23 09:12:36;;;;;;;19.30;7.97;;;;;;;-2.90;72.89;99458.72;4499787;31;20576;-74
2021/12/23 09:15:05;;;;;;;24.20;9.18;;;;;;;-2.68;73.22;99459.06;4501540;31;20163;-75
2021/12/23 09:17:32;;;;;;;21.37;8.45;;;;;;;-2.47;72.00;99464.56;4501799;31;20092;-74
2021/12/23 09:19:59;;;;;;;16.48;7.75;;;;;;;-2.51;71.70;99463.78;4501646;31;20091;-74
2021/12/23 09:22:26;;;;;;;22.00;9.00;;;;;;;-2.43;71.22;99454.19;4501919;31;20122;-74
2021/12/23 09:24:57;;;;;;;21.45;8.82;;;;;;;-2.51;71.07;99449.22;4501223;31;20100;-74
2021/12/23 09:28:31;;;;;;;26.27;9.55;;;;;;;-2.39;72.18;99440.41;4501749;31;20072;-74
2021/12/23 09:33:06;;;;;;;18.65;8.00;;;;;;;-2.38;69.88;99438.66;4493007;31;20088;-74
2021/12/23 09:35:53;;;;;;;15.35;7.45;;;;;;;-2.24;71.21;99435.72;4498591;31;20096;-74
2021/12/23 09:38:27;;;;;;;14.73;6.07;;;;;;;-2.41;69.47;99433.59;4501509;31;20092;-74
2021/12/23 09:41:03;;;;;;;18.30;7.03;;;;;;;-2.37;69.29;99435.22;4500603;31;20106;-74
2021/12/23 09:43:31;;;;;;;19.92;7.87;;;;;;;-2.08;69.33;99436.19;4501479;31;20163;-74
2021/12/23 09:45:59;;;;;;;17.70;7.15;;;;;;;-2.02;69.47;99439.41;4501191;31;20123;-74
2021/12/23 09:48:28;;;;;;;17.55;6.80;;;;;;;-1.97;68.93;99431.59;4501453;31;20083;-74
2021/12/23 09:50:58;;;;;;;16.92;7.32;;;;;;;-1.89;67.38;99426.22;4501102;31;20484;-74
2021/12/23 09:53:26;;;;;;;19.35;6.87;;;;;;;-1.88;67.75;99433.91;4501429;31;20091;-74
2021/12/23 09:55:53;;;;;;;17.27;7.00;;;;;;;-1.89;68.37;99436.50;4500004;31;20374;-74
2021/12/23 09:58:21;;;;;;;13.70;6.40;;;;;;;-1.86;67.23;99441.56;4501714;31;20072;-74
2021/12/23 10:00:48;;;;;;;20.75;7.65;;;;;;;-1.77;66.44;99430.19;4499889;31;20525;-74
2021/12/23 10:03:18;;;;;;;17.45;6.00;;;;;;;-1.66;66.09;99412.75;4493731;31;20402;-74
2021/12/23 10:05:46;;;;;;;19.40;7.90;;;;;;;-1.59;65.50;99414.25;4485180;31;20111;-74
2021/12/23 10:08:14;;;;;;;16.75;7.00;;;;;;;-1.52;66.20;99399.50;4485533;31;20160;-74
2021/12/23 10:38:14;;;;;;;21.65;5.70;;;;;;;-1.05;64.39;99352.66;4435969;32;20121;-74
2021/12/23 10:40:45;;;;;;;11.60;5.45;;;;;;;-1.53;64.78;99343.88;4436113;32;20113;-74
2021/12/23 10:43:26;;;;;;;15.38;5.95;;;;;;;-1.49;65.87;99341.16;4435971;32;20141;-74
2021/12/23 10:45:57;;;;;;;11.52;4.97;;;;;;;-1.28;65.86;99341.38;4435813;32;20093;-75
2021/12/23 10:48:30;;;;;;;15.38;6.20;;;;;;;-1.15;63.92;99324.69;4436063;32;20105;-74
2021/12/23 10:51:07;;;;;;;14.32;5.05;;;;;;;-1.13;64.41;99324.63;4435992;32;20098;-74
2021/12/23 10:59:30;;;;;;;10.95;5.15;;;;;;;-1.07;65.18;99322.69;4436194;32;20205;-75
2021/12/23 11:02:19;;;;;;;12.55;5.15;;;;;;;-1.11;64.08;99312.56;4435654;32;20159;-74
2021/12/23 11:08:18;;;;;;;10.98;5.40;;;;;;;-0.72;63.10;99294.09;4405142;32;20570;-74
2021/12/23 11:38:14;;;;;;;17.52;6.03;;;;;;;-0.94;61.89;99227.12;4435202;32;20182;-74
2021/12/23 11:43:29;;;;;;;12.75;5.68;;;;;;;-0.67;61.67;99219.34;4435501;32;20116;-74
2021/12/23 11:45:57;;;;;;;8.90;4.53;;;;;;;-0.72;62.30;99217.75;4500418;31;20109;-74
2021/12/23 11:48:24;;;;;;;11.23;4.28;;;;;;;-0.72;60.48;99201.50;4499058;31;20118;-74
2021/12/23 11:51:06;;;;;;;13.48;5.22;;;;;;;-0.82;60.70;99195.00;4498892;31;20598;-74
2021/12/23 11:53:34;;;;;;;13.65;5.45;;;;;;;-0.90;60.84;99203.81;4498708;31;20083;-74
2021/12/23 11:56:04;;;;;;;11.70;5.55;;;;;;;-0.83;60.72;99195.88;4498431;31;20123;-74
2021/12/23 11:58:31;;;;;;;15.00;5.32;;;;;;;-0.55;59.71;99193.97;4498622;31;20152;-74
2021/12/23 12:01:11;;;;;;;8.32;4.53;;;;;;;-0.90;59.85;99190.97;4498484;31;20168;-74
2021/12/23 12:04:06;;;;;;;8.95;4.50;;;;;;;-1.00;60.34;99184.47;4489783;31;20438;-74
2021/12/23 12:06:35;;;;;;;11.93;5.37;;;;;;;-0.94;59.84;99179.13;4434922;32;20573;-75
2021/12/23 12:09:17;;;;;;;10.27;5.32;;;;;;;-1.11;61.00;99184.00;4435561;32;20140;-75
2021/12/23 12:11:59;;;;;;;13.27;5.43;;;;;;;-0.87;61.37;99171.19;4435244;32;20540;-74
2021/12/23 12:14:40;;;;;;;11.93;5.43;;;;;;;-0.86;60.40;99167.69;4435572;32;20085;-74
2021/12/23 12:17:25;;;;;;;11.98;4.40;;;;;;;-0.88;59.08;99166.94;4435295;32;20112;-73
2021/12/23 12:20:07;;;;;;;8.68;4.10;;;;;;;-0.87;58.77;99166.03;4435384;32;20190;-74
2021/12/23 12:23:02;;;;;;;16.25;5.55;;;;;;;-0.83;59.03;99142.72;4435172;32;20109;-74
2021/12/23 12:25:29;;;;;;;8.27;4.00;;;;;;;-0.95;58.41;99144.00;4433138;32;20483;-75
2021/12/23 12:27:56;;;;;;;15.02;4.53;;;;;;;-1.17;58.93;99143.91;4434498;32;20387;-74
2021/12/23 12:30:38;;;;;;;14.20;4.43;;;;;;;-1.04;58.41;99148.66;4449757;32;20483;-72
2021/12/23 12:33:24;;;;;;;17.65;5.03;;;;;;;-1.13;59.11;99144.66;4450193;32;20538;-73
2021/12/23 12:36:03;;;;;;;11.12;5.50;;;;;;;-0.98;58.57;99138.97;4449340;32;20097;-73
2021/12/23 12:38:50;;;;;;;12.88;4.65;;;;;;;-1.28;58.24;99139.16;4448422;32;20131;-73
2021/12/23 12:41:26;;;;;;;12.18;4.95;;;;;;;-1.22;57.86;99140.69;4448450;32;20210;-73
2021/12/23 12:44:05;;;;;;;11.60;4.62;;;;;;;-1.19;58.51;99142.31;4477869;31;20159;-73
2021/12/23 12:49:25;;;;;;;11.73;5.80;;;;;;;-1.02;57.57;99142.53;4500804;31;20084;-74
2021/12/23 12:51:55;;;;;;;19.62;5.50;;;;;;;-1.21;58.19;99134.66;4486361;31;20129;-74
2021/12/23 12:54:32;;;;;;;12.45;4.93;;;;;;;-1.14;58.31;99128.38;4501635;31;20495;-74